Time;durP1;ratioP1;P1;durP2;ratioP2;P2;SDS_P1;SDS_P2;PMS_P1;PMS_P2;Temp;Humidity;BMP_temperature;BMP_pressure;BME280_temperature;BME280_humidity;BME280_pressure;Samples;Min_cycle;Max_cycle;Signal;HPM_P1;HPM_P2
2024/01/05 00:14:19;;;;;;;12.38;4.32;;;;;;;15.10;58.27;96165.31;6154131;23;20021;-27
2024/01/05 00:27:32;;;;;;;12.20;4.93;;;;;;;15.08;58.05;96157.59;6155582;23;20021;-26
2024/01/05 00:43:24;;;;;;;13.52;4.90;;;;;;;15.31;57.65;96169.78;6154465;23;20068;-27
2024/01/05 00:59:20;;;;;;;14.32;5.05;;;;;;;15.03;58.74;96146.56;6154871;23;20028;-27
2024/01/05 01:15:12;;;;;;;16.85;6.72;;;;;;;15.18;58.71;96160.28;6155406;23;20048;-27
2024/01/05 01:28:14;;;;;;;15.32;6.05;;;;;;;14.92;59.38;96147.06;6156818;23;20080;-27
2024/01/05 01:44:06;;;;;;;16.13;6.60;;;;;;;14.97;59.36;96143.69;6155973;23;20048;-27
2024/01/05 01:59:59;;;;;;;13.75;6.32;;;;;;;14.99;59.34;96097.56;6154245;23;20032;-27
2024/01/05 02:15:51;;;;;;;16.17;5.97;;;;;;;14.90;59.21;96096.84;6154600;23;20092;-27
2024/01/05 02:28:53;;;;;;;13.23;4.35;;;;;;;15.12;58.55;96080.94;6156119;23;20020;-27
2024/01/05 02:44:46;;;;;;;11.40;4.43;;;;;;;14.85;59.24;96024.50;6155533;23;20017;-27
2024/01/05 03:00:38;;;;;;;11.32;4.65;;;;;;;15.07;58.24;96051.56;6153344;23;20097;-27
2024/01/05 03:16:31;;;;;;;9.70;4.05;;;;;;;15.01;58.58;96026.09;6154381;23;20113;-27
2024/01/05 03:29:37;;;;;;;13.88;5.40;;;;;;;14.94;58.77;96038.13;6155068;23;20097;-27
2024/01/05 03:45:29;;;;;;;12.48;4.88;;;;;;;15.01;58.47;95993.31;6154714;23;20021;-27
2024/01/05 04:01:22;;;;;;;11.73;5.40;;;;;;;14.93;58.65;95992.94;6153318;23;20348;-26
2024/01/05 04:30:42;;;;;;;13.73;3.25;;;;;;;15.10;58.01;95974.13;6156857;23;20017;-27
2024/01/05 04:46:34;;;;;;;11.07;3.30;;;;;;;15.13;57.99;95969.72;6156208;23;20383;-27
2024/01/05 05:02:27;;;;;;;8.50;2.42;;;;;;;15.15;58.09;95973.50;6154622;23;20048;-27
2024/01/05 05:15:47;;;;;;;6.82;2.45;;;;;;;14.99;58.77;95965.72;6156583;23;20060;-27
2024/01/05 05:31:40;;;;;;;14.68;2.92;;;;;;;15.15;58.19;95948.91;6156022;23;20016;-27
2024/01/05 05:47:32;;;;;;;8.15;2.20;;;;;;;15.05;58.63;95966.59;6155546;23;20044;-27
2024/01/05 06:17:18;;;;;;;10.40;2.65;;;;;;;15.12;58.81;95947.13;6155484;23;20040;-28
2024/01/05 06:33:11;;;;;;;9.68;2.90;;;;;;;15.19;58.39;95944.03;6154883;23;20040;-27
2024/01/05 07:02:30;;;;;;;10.95;4.90;;;;;;;15.13;58.52;95943.16;6154147;23;20031;-27
2024/01/05 07:18:24;;;;;;;27.77;15.30;;;;;;;14.90;59.40;95933.03;6154933;23;20020;-27
2024/01/05 07:48:03;;;;;;;19.52;7.03;;;;;;;15.02;59.88;95942.94;6155212;23;20099;-27
2024/01/05 08:03:55;;;;;;;12.55;4.03;;;;;;;15.13;59.93;95937.69;6153132;23;20113;-27
2024/01/05 08:19:47;;;;;;;10.88;3.10;;;;;;;15.18;60.39;95942.53;6154189;23;20391;-26
2024/01/05 08:33:09;;;;;;;9.07;2.88;;;;;;;15.22;60.22;95904.09;6155139;23;20025;-27
2024/01/05 08:49:01;;;;;;;9.02;3.15;;;;;;;15.16;59.93;95916.91;6155052;23;20044;-27
2024/01/05 09:04:53;;;;;;;9.00;3.47;;;;;;;15.34;59.56;95919.44;6152968;23;20125;-27
2024/01/05 09:33:51;;;;;;;7.15;2.40;;;;;;;15.14;60.32;95903.72;6156681;23;20510;-27
2024/01/05 09:49:45;;;;;;;9.63;1.95;;;;;;;15.32;59.64;95875.47;6155689;23;20068;-27
2024/01/05 10:05:37;;;;;;;5.60;1.88;;;;;;;15.52;58.46;95850.22;6153898;23;20149;-27
2024/01/05 10:34:56;;;;;;;4.72;2.03;;;;;;;15.61;57.70;95822.81;6155665;23;20136;-27
2024/01/05 10:50:49;;;;;;;6.85;2.40;;;;;;;15.39;58.41;95788.41;6155182;23;20105;-27
2024/01/05 11:06:42;;;;;;;10.57;3.90;;;;;;;15.32;58.25;95766.19;6153308;23;20107;-27
2024/01/05 11:20:02;;;;;;;6.55;2.70;;;;;;;15.14;58.13;95739.84;6155406;23;20012;-27
2024/01/05 11:35:55;;;;;;;6.05;2.13;;;;;;;15.34;58.00;95709.09;6154835;23;20068;-27
2024/01/05 11:38:26;;;;;;;6.53;2.10;;;;;;;15.09;58.47;95704.97;6153839;23;20002;-27
2024/01/05 11:50:57;;;;;;;10.60;3.70;;;;;;;15.40;59.52;95663.47;6155453;23;20016;-27
2024/01/05 12:06:52;;;;;;;5.25;2.50;;;;;;;15.17;61.31;95623.44;6153217;23;20032;-27
2024/01/05 12:36:23;;;;;;;9.35;3.50;;;;;;;15.23;62.73;95558.69;6064396;23;20021;-27
2024/01/05 12:52:15;;;;;;;12.77;3.90;;;;;;;15.29;63.82;95529.47;6065908;23;20022;-27
2024/01/05 13:08:09;;;;;;;7.80;4.35;;;;;;;15.30;64.75;95529.00;6154741;23;20470;-27
2024/01/05 13:21:30;;;;;;;18.00;8.63;;;;;;;15.30;65.72;95506.41;6156683;23;20076;-27
2024/01/05 13:37:24;;;;;;;12.63;5.25;;;;;;;15.04;67.56;95490.69;6155590;23;20028;-27
2024/01/05 13:53:17;;;;;;;21.15;10.20;;;;;;;15.36;66.97;95475.16;6155354;23;20056;-27
2024/01/05 14:23:27;;;;;;;12.45;7.28;;;;;;;15.14;69.17;95461.28;6155394;23;20019;-27
2024/01/05 14:39:21;;;;;;;11.68;4.97;;;;;;;15.12;69.37;95441.88;6154836;23;20017;-26
2024/01/05 14:52:29;;;;;;;13.25;6.05;;;;;;;15.20;69.21;95437.50;6155884;23;20446;-27
2024/01/05 15:08:21;;;;;;;11.43;5.45;;;;;;;15.32;69.43;95430.19;6154118;23;20459;-27
2024/01/05 15:24:44;;;;;;;15.48;6.70;;;;;;;15.42;69.15;95426.06;6164522;23;20045;-27
2024/01/05 15:38:01;;;;;;;9.80;5.32;;;;;;;14.91;72.28;95418.56;6155252;23;20044;-26
2024/01/05 15:53:53;;;;;;;8.15;5.53;;;;;;;15.27;70.66;95393.38;6155345;23;20060;-27
2024/01/05 16:09:45;;;;;;;11.70;5.68;;;;;;;15.41;70.24;95383.56;6153915;23;20073;-26
2024/01/05 16:25:37;;;;;;;12.07;5.40;;;;;;;15.18;71.02;95390.81;6157256;23;20017;-26
2024/01/05 16:38:43;;;;;;;6.85;3.80;;;;;;;15.32;70.21;95378.28;6157206;23;20060;-26
2024/01/05 16:54:35;;;;;;;9.82;5.75;;;;;;;15.44;69.17;95385.34;6156743;23;20012;-27
2024/01/05 17:10:27;;;;;;;6.75;4.32;;;;;;;15.30;69.48;95388.94;6155502;23;20044;-27
2024/01/05 17:12:54;;;;;;;8.50;4.15;;;;;;;15.20;70.35;95382.13;6156852;23;20428;-26
2024/01/05 17:25:25;;;;;;;9.30;4.60;;;;;;;15.09;69.77;95371.81;6156260;23;20058;-27
2024/01/05 17:41:18;;;;;;;7.30;4.30;;;;;;;15.17;69.78;95366.72;6156446;23;20335;-26
2024/01/05 17:54:35;;;;;;;11.75;5.40;;;;;;;15.42;68.50;95350.31;6156398;23;20068;-26
2024/01/05 18:10:28;;;;;;;9.20;5.00;;;;;;;15.43;68.01;95338.16;6154730;23;20028;-26
2024/01/05 18:26:21;;;;;;;9.85;5.78;;;;;;;15.09;69.58;95345.28;6156218;23;20021;-26
2024/01/05 18:42:14;;;;;;;11.00;5.53;;;;;;;15.47;67.56;95326.97;6155544;23;20486;-27
2024/01/05 18:55:20;;;;;;;20.23;9.88;;;;;;;15.25;69.10;95324.81;6155696;23;20347;-26
2024/01/05 19:11:12;;;;;;;18.70;10.30;;;;;;;15.39;68.35;95323.94;6154483;23;20028;-27
2024/01/05 19:27:05;;;;;;;12.52;6.43;;;;;;;15.45;68.20;95326.75;6155185;23;20068;-27
2024/01/05 19:57:08;;;;;;;11.85;6.40;;;;;;;15.51;67.80;95302.94;6155167;23;20072;-27
2024/01/05 19:59:33;;;;;;;13.27;5.78;;;;;;;15.62;67.20;95313.22;6155398;23;20017;-26
2024/01/05 20:01:59;;;;;;;10.60;5.28;;;;;;;15.55;67.43;95313.69;6155551;23;20012;-26
2024/01/05 20:29:29;;;;;;;12.35;6.35;;;;;;;15.38;67.35;95276.00;6155207;23;20037;-27
2024/01/05 20:59:32;;;;;;;10.32;4.90;;;;;;;15.36;68.77;95269.53;6155140;23;20036;-27
2024/01/05 21:15:27;;;;;;;17.55;6.35;;;;;;;15.31;69.13;95251.88;6155866;23;20447;-27
2024/01/05 21:28:35;;;;;;;13.57;6.15;;;;;;;15.19;68.85;95255.00;6156413;23;20020;-26
2024/01/05 21:44:35;;;;;;;9.23;4.07;;;;;;;15.23;68.71;95239.88;6156165;23;20017;-27
2024/01/05 22:00:28;;;;;;;10.75;3.90;;;;;;;15.38;67.84;95226.09;6156271;23;20017;-26
2024/01/05 22:30:39;;;;;;;9.85;4.32;;;;;;;15.32;67.57;95174.16;6156057;23;20223;-27
2024/01/05 22:59:59;;;;;;;7.85;4.13;;;;;;;15.31;67.90;95155.53;6155739;23;20093;-27
2024/01/05 23:02:25;;;;;;;8.80;3.65;;;;;;;15.40;67.80;95152.59;6156032;23;20001;-27
2024/01/05 23:14:56;;;;;;;8.45;2.97;;;;;;;15.44;67.27;95134.00;6154355;23;20031;-27
2024/01/05 23:30:50;;;;;;;8.20;2.53;;;;;;;15.39;67.22;95118.31;6155468;23;20037;-27
2024/01/05 23:46:42;;;;;;;5.82;2.28;;;;;;;15.40;67.07;95095.97;6155455;23;20028;-26
